Time;durP1;ratioP1;P1;durP2;ratioP2;P2;SDS_P1;SDS_P2;PMS_P1;PMS_P2;Temp;Humidity;BMP_temperature;BMP_pressure;BME280_temperature;BME280_humidity;BME280_pressure;Samples;Min_cycle;Max_cycle;Signal;HPM_P1;HPM_P2
2022/01/15 00:01:56;;;;;;;;;93.33;71.67;;;;;;;;4971663;28;45469;-82
2022/01/15 00:04:21;;;;;;;;;96.33;77.67;;;;;;;;4971439;28;45451;-82
2022/01/15 00:06:46;;;;;;;;;93.00;72.00;;;;;;;;4972705;28;45559;-82
2022/01/15 00:09:11;;;;;;;;;97.33;77.00;;;;;;;;4970961;28;47123;-82
2022/01/15 00:11:37;;;;;;;;;94.33;72.33;;;;;;;;4972702;28;45739;-82
2022/01/15 00:14:14;;;;;;;;;92.25;72.25;;;;;;;;4971635;28;45442;-82
2022/01/15 00:16:48;;;;;;;;;91.00;71.00;;;;;;;;4972779;28;45549;-82
2022/01/15 00:19:16;;;;;;;;;97.25;78.75;;;;;;;;4972330;28;45542;-80
2022/01/15 00:21:41;;;;;;;;;97.50;71.50;;;;;;;;4970549;28;45917;-82
2022/01/15 00:24:07;;;;;;;;;94.67;74.00;;;;;;;;4971457;28;45737;-82
2022/01/15 00:26:32;;;;;;;;;100.00;81.67;;;;;;;;4972277;28;45477;-82
2022/01/15 00:28:57;;;;;;;;;93.67;72.33;;;;;;;;4971228;28;48000;-81
2022/01/15 00:31:23;;;;;;;;;92.67;74.67;;;;;;;;4969898;28;46146;-82
2022/01/15 00:33:48;;;;;;;;;90.00;67.67;;;;;;;;4971156;28;45516;-82
2022/01/15 00:36:13;;;;;;;;;93.33;72.00;;;;;;;;4972383;28;45623;-82
2022/01/15 00:38:38;;;;;;;;;94.67;72.67;;;;;;;;4971537;28;48009;-82
2022/01/15 00:41:03;;;;;;;;;89.00;69.33;;;;;;;;4971039;28;45418;-82
2022/01/15 00:43:29;;;;;;;;;86.00;68.00;;;;;;;;4972037;28;45811;-82
2022/01/15 00:45:57;;;;;;;;;88.33;69.33;;;;;;;;4972242;28;45531;-82
2022/01/15 00:48:23;;;;;;;;;84.00;66.75;;;;;;;;4971758;28;46525;-81
2022/01/15 00:50:48;;;;;;;;;91.00;70.75;;;;;;;;4970622;28;45790;-82
2022/01/15 00:53:13;;;;;;;;;84.00;64.33;;;;;;;;4971758;28;45503;-82
2022/01/15 00:55:39;;;;;;;;;88.00;68.67;;;;;;;;4970535;28;45635;-82
2022/01/15 00:58:04;;;;;;;;;87.67;69.00;;;;;;;;4970566;28;48119;-82
2022/01/15 01:00:29;;;;;;;;;87.67;70.00;;;;;;;;4971309;28;45492;-82
2022/01/15 01:02:54;;;;;;;;;90.33;69.33;;;;;;;;4971099;28;45521;-82
2022/01/15 01:05:20;;;;;;;;;80.00;64.67;;;;;;;;4971762;28;45382;-82
2022/01/15 01:07:45;;;;;;;;;86.25;67.50;;;;;;;;4971124;28;45429;-82
2022/01/15 01:23:01;;;;;;;;;91.00;71.00;;;;;;;;4972134;28;45785;-82
2022/01/15 01:25:33;;;;;;;;;91.67;70.33;;;;;;;;4971533;28;45482;-82
2022/01/15 01:28:06;;;;;;;;;85.75;68.75;;;;;;;;4971831;28;45391;-81
2022/01/15 01:30:39;;;;;;;;;90.50;69.25;;;;;;;;4969007;28;45523;-82
2022/01/15 01:33:30;;;;;;;;;86.25;69.75;;;;;;;;4990823;28;45765;-82
2022/01/15 01:38:32;;;;;;;;;79.25;62.75;;;;;;;;4990496;28;45368;-82
2022/01/15 01:41:00;;;;;;;;;79.50;63.50;;;;;;;;4991393;28;45297;-82
2022/01/15 01:43:42;;;;;;;;;84.00;67.25;;;;;;;;4972339;28;45557;-82
2022/01/15 01:48:38;;;;;;;;;83.75;66.75;;;;;;;;4990958;28;46143;-82
2022/01/15 01:51:06;;;;;;;;;81.50;66.00;;;;;;;;4990427;28;45424;-81
2022/01/15 01:53:32;;;;;;;;;72.00;59.75;;;;;;;;4972910;28;45929;-82
2022/01/15 01:55:57;;;;;;;;;81.25;65.50;;;;;;;;4973285;28;45412;-82
2022/01/15 01:58:22;;;;;;;;;79.33;63.00;;;;;;;;4989662;28;45574;-81
2022/01/15 02:00:48;;;;;;;;;79.33;61.00;;;;;;;;4990272;28;45631;-82
2022/01/15 02:03:13;;;;;;;;;79.33;61.67;;;;;;;;4973052;28;45669;-82
2022/01/15 02:05:41;;;;;;;;;81.67;63.00;;;;;;;;4990195;28;45475;-82
2022/01/15 02:08:06;;;;;;;;;61.50;52.50;;;;;;;;4973228;28;46401;-81
2022/01/15 02:10:32;;;;;;;;;78.00;61.00;;;;;;;;4990436;28;45355;-82
2022/01/15 02:12:57;;;;;;;;;82.00;62.75;;;;;;;;4990316;28;45407;-82
2022/01/15 02:15:23;;;;;;;;;76.75;61.50;;;;;;;;4990597;28;45459;-82
2022/01/15 02:17:48;;;;;;;;;73.00;60.00;;;;;;;;4990441;28;46104;-82
2022/01/15 02:23:33;;;;;;;;;64.25;52.00;;;;;;;;4990948;28;45465;-82
2022/01/15 02:26:03;;;;;;;;;76.50;60.50;;;;;;;;4990928;28;45563;-82
2022/01/15 02:28:29;;;;;;;;;78.25;61.75;;;;;;;;4989781;28;46734;-82
2022/01/15 02:31:00;;;;;;;;;81.75;61.00;;;;;;;;4990701;28;45452;-82
2022/01/15 02:33:25;;;;;;;;;81.50;62.75;;;;;;;;4990042;28;45723;-82
2022/01/15 02:35:50;;;;;;;;;72.25;58.75;;;;;;;;4989880;28;45468;-82
2022/01/15 02:38:16;;;;;;;;;80.67;63.00;;;;;;;;4971513;28;47628;-81
2022/01/15 02:40:42;;;;;;;;;80.67;63.67;;;;;;;;4972243;28;45979;-82
2022/01/15 02:43:10;;;;;;;;;74.75;58.50;;;;;;;;4989812;28;45472;-82
2022/01/15 02:45:36;;;;;;;;;78.25;62.50;;;;;;;;4990286;28;45515;-82
2022/01/15 02:48:11;;;;;;;;;75.50;62.25;;;;;;;;4972628;28;47732;-82
2022/01/15 02:50:37;;;;;;;;;76.50;60.75;;;;;;;;4989157;28;45522;-81
2022/01/15 02:53:03;;;;;;;;;82.75;63.00;;;;;;;;4990208;28;45508;-82
2022/01/15 02:55:28;;;;;;;;;77.00;62.00;;;;;;;;4972148;28;45486;-82
2022/01/15 02:57:53;;;;;;;;;73.00;59.67;;;;;;;;4989904;28;46250;-82
2022/01/15 03:00:20;;;;;;;;;79.67;61.67;;;;;;;;4989588;28;45522;-82
2022/01/15 03:02:45;;;;;;;;;71.25;57.75;;;;;;;;4989944;28;45445;-82
2022/01/15 03:05:10;;;;;;;;;73.00;60.33;;;;;;;;4989824;28;45254;-82
2022/01/15 03:07:36;;;;;;;;;75.67;59.00;;;;;;;;4989550;28;45360;-82
2022/01/15 03:10:02;;;;;;;;;76.00;60.50;;;;;;;;4972299;28;45499;-82
2022/01/15 03:12:28;;;;;;;;;77.25;61.50;;;;;;;;4991401;28;45574;-82
2022/01/15 03:14:55;;;;;;;;;77.67;60.67;;;;;;;;4975911;28;45591;-82
2022/01/15 03:17:21;;;;;;;;;76.00;59.75;;;;;;;;4992741;28;45395;-81
2022/01/15 03:19:46;;;;;;;;;81.67;63.33;;;;;;;;4974965;28;45504;-82
2022/01/15 03:22:11;;;;;;;;;77.00;62.33;;;;;;;;4993139;28;45675;-82
2022/01/15 03:24:36;;;;;;;;;75.00;59.67;;;;;;;;4993430;28;45507;-82
2022/01/15 03:27:02;;;;;;;;;80.67;64.33;;;;;;;;4992624;28;45466;-82
2022/01/15 03:29:27;;;;;;;;;72.67;59.33;;;;;;;;4992955;28;45429;-82
2022/01/15 03:31:52;;;;;;;;;73.33;59.67;;;;;;;;4993371;28;45618;-82
2022/01/15 03:34:17;;;;;;;;;80.00;63.00;;;;;;;;4992633;28;45476;-82
2022/01/15 03:36:42;;;;;;;;;80.00;63.00;;;;;;;;4992575;28;45527;-82
2022/01/15 03:39:08;;;;;;;;;75.00;60.67;;;;;;;;4992716;28;45416;-82
2022/01/15 03:41:33;;;;;;;;;76.67;59.67;;;;;;;;4992421;28;45333;-82
2022/01/15 03:43:58;;;;;;;;;72.33;60.00;;;;;;;;4975694;28;45272;-82
2022/01/15 03:46:23;;;;;;;;;78.33;63.00;;;;;;;;4993083;28;45787;-82
2022/01/15 03:48:49;;;;;;;;;79.67;63.33;;;;;;;;4992889;28;45472;-81
2022/01/15 03:51:18;;;;;;;;;78.67;61.00;;;;;;;;4974372;28;45375;-82
2022/01/15 03:53:44;;;;;;;;;79.75;63.00;;;;;;;;4992906;28;45493;-82
2022/01/15 03:56:09;;;;;;;;;76.33;55.33;;;;;;;;4992637;28;46550;-82
2022/01/15 03:58:34;;;;;;;;;84.33;64.33;;;;;;;;4974062;28;45428;-82
2022/01/15 04:00:59;;;;;;;;;78.33;63.33;;;;;;;;4993287;28;45723;-82
2022/01/15 04:03:24;;;;;;;;;77.33;62.00;;;;;;;;4974797;28;45299;-82
2022/01/15 04:05:50;;;;;;;;;80.67;65.00;;;;;;;;4974192;28;47915;-81
2022/01/15 04:08:15;;;;;;;;;80.33;61.67;;;;;;;;4974594;28;45737;-82
2022/01/15 04:10:42;;;;;;;;;79.67;63.00;;;;;;;;4992876;28;45507;-82
2022/01/15 04:13:07;;;;;;;;;73.50;59.75;;;;;;;;4974398;28;45512;-81
2022/01/15 04:15:32;;;;;;;;;83.67;65.00;;;;;;;;4974373;28;47944;-81
2022/01/15 04:17:57;;;;;;;;;78.00;63.00;;;;;;;;4974910;28;45504;-82
2022/01/15 04:20:23;;;;;;;;;77.67;62.33;;;;;;;;4973592;28;45434;-82
2022/01/15 04:22:50;;;;;;;;;79.50;64.50;;;;;;;;4992096;28;45681;-82
2022/01/15 04:25:17;;;;;;;;;83.50;65.75;;;;;;;;4991990;28;46516;-82
2022/01/15 04:27:44;;;;;;;;;85.00;67.00;;;;;;;;4991921;28;45411;-82
2022/01/15 04:30:11;;;;;;;;;79.25;64.50;;;;;;;;4974526;28;45523;-81
2022/01/15 04:32:37;;;;;;;;;74.00;60.25;;;;;;;;4991989;28;45423;-82
2022/01/15 04:35:02;;;;;;;;;87.00;66.33;;;;;;;;4991707;28;45468;-82
2022/01/15 04:37:41;;;;;;;;;82.75;65.25;;;;;;;;4991361;28;45680;-82
2022/01/15 04:40:07;;;;;;;;;80.75;62.75;;;;;;;;4974439;28;45442;-81
2022/01/15 04:42:32;;;;;;;;;80.00;64.00;;;;;;;;4991324;28;45570;-81
2022/01/15 04:44:58;;;;;;;;;78.33;63.00;;;;;;;;4974384;28;47408;-82
2022/01/15 04:47:23;;;;;;;;;79.33;63.00;;;;;;;;4991781;28;45650;-82
2022/01/15 04:49:48;;;;;;;;;78.00;61.75;;;;;;;;4974204;28;45591;-82
2022/01/15 04:52:13;;;;;;;;;78.33;63.00;;;;;;;;4991285;28;45476;-82
2022/01/15 04:54:39;;;;;;;;;78.33;63.00;;;;;;;;4973817;28;47066;-82
2022/01/15 04:57:04;;;;;;;;;80.00;62.67;;;;;;;;4973424;28;45760;-82
2022/01/15 04:59:29;;;;;;;;;77.25;61.25;;;;;;;;4973953;28;45839;-82
2022/01/15 05:01:54;;;;;;;;;80.00;63.00;;;;;;;;4992221;28;45424;-81
2022/01/15 05:04:20;;;;;;;;;79.33;62.33;;;;;;;;4990887;28;45941;-81
2022/01/15 05:06:45;;;;;;;;;50.00;39.33;;;;;;;;4973709;28;45467;-81
2022/01/15 05:09:10;;;;;;;;;75.33;59.67;;;;;;;;4991498;28;45807;-82
2022/01/15 05:11:49;;;;;;;;;70.75;58.00;;;;;;;;4973137;28;45386;-82
2022/01/15 05:14:16;;;;;;;;;75.00;58.25;;;;;;;;4973378;28;47889;-82
2022/01/15 05:16:41;;;;;;;;;70.50;56.75;;;;;;;;4973779;28;45597;-81
2022/01/15 05:19:06;;;;;;;;;77.00;61.67;;;;;;;;4991226;28;45514;-81
2022/01/15 05:21:31;;;;;;;;;69.33;58.33;;;;;;;;4973118;28;45532;-82
2022/01/15 05:23:57;;;;;;;;;78.00;59.75;;;;;;;;4991475;28;46451;-82
2022/01/15 05:26:22;;;;;;;;;72.33;58.67;;;;;;;;4990927;28;45439;-82
2022/01/15 05:28:47;;;;;;;;;77.67;60.67;;;;;;;;4991809;28;45598;-82
2022/01/15 05:31:13;;;;;;;;;67.67;53.00;;;;;;;;4991629;28;45722;-82
2022/01/15 05:33:38;;;;;;;;;74.25;59.25;;;;;;;;4990383;28;45619;-82
2022/01/15 05:36:03;;;;;;;;;69.33;57.33;;;;;;;;4990209;28;45655;-82
2022/01/15 05:38:28;;;;;;;;;69.00;56.00;;;;;;;;4973344;28;45523;-82
2022/01/15 05:40:54;;;;;;;;;78.00;58.67;;;;;;;;4990854;28;45333;-82
2022/01/15 05:43:19;;;;;;;;;73.00;57.33;;;;;;;;4990897;28;45455;-81
2022/01/15 05:45:45;;;;;;;;;68.33;52.33;;;;;;;;4973523;28;45302;-81
2022/01/15 05:48:10;;;;;;;;;70.75;57.75;;;;;;;;4990829;28;45383;-82
2022/01/15 05:50:35;;;;;;;;;73.33;59.00;;;;;;;;4990882;28;45743;-82
2022/01/15 05:53:00;;;;;;;;;65.33;55.00;;;;;;;;4991019;28;45403;-82
2022/01/15 05:55:26;;;;;;;;;69.33;54.67;;;;;;;;4990017;28;45798;-82
2022/01/15 05:57:51;;;;;;;;;71.33;57.67;;;;;;;;4991349;28;45396;-82
2022/01/15 06:00:16;;;;;;;;;69.00;54.67;;;;;;;;4990913;28;45320;-82
2022/01/15 06:02:42;;;;;;;;;74.00;57.33;;;;;;;;4990341;28;46622;-82
2022/01/15 06:05:07;;;;;;;;;76.33;62.67;;;;;;;;4990326;28;45741;-82
2022/01/15 06:07:32;;;;;;;;;66.25;55.75;;;;;;;;4990618;28;45404;-81
2022/01/15 06:10:00;;;;;;;;;73.33;58.67;;;;;;;;4990572;28;45407;-82
2022/01/15 06:12:30;;;;;;;;;76.25;60.50;;;;;;;;4990025;28;47494;-82
2022/01/15 06:14:56;;;;;;;;;71.50;57.00;;;;;;;;4973147;28;45920;-82
2022/01/15 06:17:21;;;;;;;;;75.75;60.25;;;;;;;;4990035;28;45472;-82
2022/01/15 06:19:46;;;;;;;;;72.33;59.00;;;;;;;;4990629;28;45724;-82
2022/01/15 06:22:11;;;;;;;;;73.67;60.00;;;;;;;;4990491;28;45707;-81
2022/01/15 06:24:36;;;;;;;;;69.67;54.33;;;;;;;;4989809;28;45336;-82
2022/01/15 06:27:02;;;;;;;;;75.33;59.00;;;;;;;;4990917;28;45352;-81
2022/01/15 06:29:27;;;;;;;;;73.75;59.75;;;;;;;;4972384;28;45587;-82
2022/01/15 06:31:54;;;;;;;;;75.67;60.33;;;;;;;;4971966;28;48446;-82
2022/01/15 06:34:19;;;;;;;;;62.25;52.25;;;;;;;;4990358;28;45715;-82
2022/01/15 06:36:44;;;;;;;;;72.75;57.25;;;;;;;;4990348;28;45919;-82
2022/01/15 06:39:09;;;;;;;;;71.00;59.00;;;;;;;;4989563;28;45828;-82
2022/01/15 06:41:35;;;;;;;;;66.00;56.33;;;;;;;;4990183;28;46443;-82
2022/01/15 06:44:00;;;;;;;;;66.00;54.00;;;;;;;;4972858;28;45504;-81
2022/01/15 06:46:25;;;;;;;;;69.67;56.33;;;;;;;;4971959;28;45717;-82
2022/01/15 06:48:50;;;;;;;;;76.00;57.33;;;;;;;;4972534;28;45710;-82
2022/01/15 06:51:16;;;;;;;;;75.00;59.33;;;;;;;;4989237;28;46057;-82
2022/01/15 06:53:41;;;;;;;;;72.33;58.67;;;;;;;;4971832;28;45671;-82
2022/01/15 06:56:06;;;;;;;;;75.67;59.67;;;;;;;;4990080;28;45442;-82
2022/01/15 06:58:31;;;;;;;;;75.50;61.25;;;;;;;;4990289;28;45846;-82
2022/01/15 07:00:57;;;;;;;;;73.67;57.00;;;;;;;;4990382;28;45604;-82
2022/01/15 07:03:22;;;;;;;;;72.67;57.33;;;;;;;;4989326;28;45440;-82
2022/01/15 07:05:47;;;;;;;;;82.33;67.00;;;;;;;;4989958;28;45602;-82
2022/01/15 07:08:12;;;;;;;;;79.67;64.33;;;;;;;;4971817;28;45500;-82
2022/01/15 07:10:41;;;;;;;;;81.33;62.33;;;;;;;;4989354;28;46219;-82
2022/01/15 07:13:07;;;;;;;;;76.75;62.50;;;;;;;;4989798;28;45439;-82
2022/01/15 07:15:33;;;;;;;;;77.75;62.00;;;;;;;;4972035;28;45470;-82
2022/01/15 07:18:01;;;;;;;;;84.25;65.00;;;;;;;;4989941;28;45404;-82
2022/01/15 07:20:26;;;;;;;;;79.00;63.50;;;;;;;;4971348;28;48039;-82
2022/01/15 07:22:52;;;;;;;;;79.25;63.50;;;;;;;;4989834;28;45447;-82
2022/01/15 07:25:17;;;;;;;;;74.00;59.67;;;;;;;;4971230;28;45611;-82
2022/01/15 07:27:42;;;;;;;;;72.33;57.33;;;;;;;;4989978;28;45462;-82
2022/01/15 07:30:09;;;;;;;;;70.00;56.00;;;;;;;;4971566;28;46931;-82
2022/01/15 07:32:35;;;;;;;;;71.75;60.00;;;;;;;;4970935;28;45709;-82
2022/01/15 07:35:02;;;;;;;;;74.50;59.50;;;;;;;;4989679;28;45447;-81
2022/01/15 07:37:27;;;;;;;;;71.75;57.25;;;;;;;;4988837;28;45384;-82
2022/01/15 07:39:53;;;;;;;;;76.67;61.00;;;;;;;;4989353;28;46310;-82
2022/01/15 07:42:19;;;;;;;;;69.50;58.25;;;;;;;;4989447;28;45459;-81
2022/01/15 07:44:44;;;;;;;;;74.25;59.50;;;;;;;;4989767;28;45843;-82
2022/01/15 07:47:09;;;;;;;;;70.00;56.67;;;;;;;;4989246;28;45657;-81
2022/01/15 07:49:35;;;;;;;;;72.67;58.00;;;;;;;;4989373;28;45425;-82
2022/01/15 07:52:00;;;;;;;;;73.33;60.33;;;;;;;;4989010;28;45492;-82
2022/01/15 07:54:25;;;;;;;;;69.00;57.00;;;;;;;;4970749;28;45441;-82
2022/01/15 07:56:54;;;;;;;;;77.33;58.00;;;;;;;;4989536;28;45360;-83
2022/01/15 07:59:20;;;;;;;;;71.00;58.50;;;;;;;;4992166;28;46086;-82
2022/01/15 08:01:45;;;;;;;;;68.00;56.00;;;;;;;;4992387;28;45296;-82
2022/01/15 08:04:10;;;;;;;;;75.67;60.67;;;;;;;;4992773;28;45360;-82
2022/01/15 08:06:35;;;;;;;;;72.67;59.33;;;;;;;;4992338;28;45690;-82
2022/01/15 08:09:00;;;;;;;;;78.00;58.67;;;;;;;;4992202;28;45505;-82
2022/01/15 08:11:26;;;;;;;;;73.67;59.00;;;;;;;;4991959;28;45433;-82
2022/01/15 08:13:51;;;;;;;;;75.67;62.67;;;;;;;;4992701;28;45301;-82
2022/01/15 08:16:16;;;;;;;;;78.67;62.00;;;;;;;;4992029;28;45658;-82
2022/01/15 08:18:41;;;;;;;;;76.67;60.33;;;;;;;;4974690;28;47149;-82
2022/01/15 08:21:06;;;;;;;;;74.00;59.67;;;;;;;;4974785;28;45784;-82
2022/01/15 08:23:33;;;;;;;;;78.00;63.67;;;;;;;;4991702;28;45408;-82
2022/01/15 08:25:58;;;;;;;;;78.75;60.50;;;;;;;;4992749;28;45646;-82
2022/01/15 08:28:24;;;;;;;;;84.50;66.75;;;;;;;;4974248;28;46049;-81
2022/01/15 08:30:50;;;;;;;;;85.50;66.75;;;;;;;;4974350;28;45435;-82
2022/01/15 08:33:15;;;;;;;;;81.75;61.25;;;;;;;;4972117;28;45591;-82
2022/01/15 08:35:41;;;;;;;;;76.67;61.00;;;;;;;;4972861;28;45812;-82
2022/01/15 08:38:09;;;;;;;;;72.67;59.67;;;;;;;;4971675;28;46836;-82
2022/01/15 08:40:34;;;;;;;;;82.25;61.75;;;;;;;;4954782;28;45708;-82
2022/01/15 08:43:00;;;;;;;;;80.75;61.25;;;;;;;;4955297;28;45422;-82
2022/01/15 08:45:26;;;;;;;;;73.50;60.25;;;;;;;;4953950;28;45395;-82
2022/01/15 08:47:52;;;;;;;;;71.50;57.25;;;;;;;;4972643;28;45484;-82
2022/01/15 08:50:17;;;;;;;;;71.33;58.00;;;;;;;;4972123;28;45376;-82
2022/01/15 08:52:43;;;;;;;;;74.00;60.67;;;;;;;;4971495;28;45761;-82
2022/01/15 08:55:09;;;;;;;;;70.00;56.25;;;;;;;;4972274;28;45535;-82
2022/01/15 08:57:34;;;;;;;;;69.75;56.50;;;;;;;;4972143;28;45527;-82
2022/01/15 09:00:00;;;;;;;;;76.25;61.25;;;;;;;;4972221;28;45674;-82
2022/01/15 09:02:25;;;;;;;;;78.50;62.50;;;;;;;;4972176;28;45537;-82
2022/01/15 09:04:51;;;;;;;;;81.33;59.67;;;;;;;;4972504;28;45376;-82
2022/01/15 09:07:16;;;;;;;;;69.33;56.67;;;;;;;;4971077;28;45624;-82
2022/01/15 09:09:41;;;;;;;;;75.00;59.67;;;;;;;;4954281;28;45584;-82
2022/01/15 09:12:07;;;;;;;;;74.00;59.00;;;;;;;;4972064;28;45964;-82
2022/01/15 09:14:32;;;;;;;;;73.00;58.00;;;;;;;;4971195;28;45599;-82
2022/01/15 09:16:57;;;;;;;;;77.33;62.67;;;;;;;;4972207;28;46258;-82
2022/01/15 09:19:22;;;;;;;;;87.33;67.00;;;;;;;;4971462;28;45434;-82
2022/01/15 09:21:48;;;;;;;;;84.67;67.00;;;;;;;;4971994;28;45534;-82
2022/01/15 09:24:13;;;;;;;;;77.33;62.33;;;;;;;;4971545;28;45423;-82
2022/01/15 09:32:14;;;;;;;;;76.75;61.50;;;;;;;;4982785;28;45486;-82
2022/01/15 09:34:39;;;;;;;;;70.33;57.67;;;;;;;;4991346;28;45312;-82
2022/01/15 09:37:05;;;;;;;;;77.67;63.00;;;;;;;;4990567;28;46210;-82
2022/01/15 09:39:31;;;;;;;;;78.50;60.75;;;;;;;;4990768;28;45518;-82
2022/01/15 09:41:56;;;;;;;;;76.75;62.75;;;;;;;;4974013;28;45736;-82
2022/01/15 09:44:24;;;;;;;;;73.00;59.67;;;;;;;;4990611;28;45431;-82
2022/01/15 09:46:50;;;;;;;;;81.00;61.50;;;;;;;;4973603;28;47124;-82
2022/01/15 09:49:16;;;;;;;;;75.75;61.50;;;;;;;;4972862;28;45703;-82
2022/01/15 09:51:42;;;;;;;;;75.50;61.25;;;;;;;;4972428;28;45794;-82
2022/01/15 09:54:07;;;;;;;;;77.25;61.25;;;;;;;;4973168;28;45580;-81
2022/01/15 09:56:33;;;;;;;;;85.33;66.00;;;;;;;;4990913;28;46984;-83
2022/01/15 09:59:00;;;;;;;;;89.67;69.67;;;;;;;;4990564;28;45450;-82
2022/01/15 10:01:27;;;;;;;;;87.25;68.75;;;;;;;;4972887;28;45545;-82
2022/01/15 10:03:52;;;;;;;;;84.75;66.75;;;;;;;;4991334;28;45419;-83
2022/01/15 10:06:17;;;;;;;;;83.00;65.00;;;;;;;;4972236;28;46285;-82
2022/01/15 10:08:57;;;;;;;;;87.67;70.33;;;;;;;;4990471;28;45502;-82
2022/01/15 10:11:42;;;;;;;;;82.50;66.00;;;;;;;;4972716;28;45827;-82
2022/01/15 10:14:26;;;;;;;;;87.25;69.75;;;;;;;;4990156;28;45420;-82
2022/01/15 10:16:51;;;;;;;;;91.00;69.75;;;;;;;;4990812;28;45753;-82
2022/01/15 10:19:24;;;;;;;;;86.75;69.25;;;;;;;;4972358;28;45598;-82
2022/01/15 10:22:04;;;;;;;;;93.25;70.75;;;;;;;;4989732;28;45427;-83
2022/01/15 10:24:30;;;;;;;;;92.00;74.00;;;;;;;;4972661;28;45533;-83
2022/01/15 10:26:55;;;;;;;;;93.00;74.67;;;;;;;;4990522;28;45406;-82
2022/01/15 10:29:20;;;;;;;;;92.33;72.33;;;;;;;;4971751;28;45957;-82
2022/01/15 10:31:45;;;;;;;;;104.50;91.00;;;;;;;;4990464;28;45587;-82
2022/01/15 10:34:23;;;;;;;;;100.00;84.00;;;;;;;;4990981;28;45678;-82
2022/01/15 10:36:48;;;;;;;;;102.25;86.00;;;;;;;;4971833;28;48154;-82
2022/01/15 10:39:14;;;;;;;;;105.67;89.33;;;;;;;;4972260;28;45956;-82
2022/01/15 10:41:40;;;;;;;;;105.00;91.50;;;;;;;;4991094;28;45744;-83
2022/01/15 10:44:25;;;;;;;;;111.67;101.00;;;;;;;;4990137;28;45464;-82
2022/01/15 10:46:50;;;;;;;;;106.25;89.25;;;;;;;;4972415;28;48721;-82
2022/01/15 10:49:25;;;;;;;;;100.67;86.67;;;;;;;;4971960;28;45494;-83
2022/01/15 10:52:09;;;;;;;;;103.75;95.50;;;;;;;;4971708;28;45388;-82
2022/01/15 10:54:35;;;;;;;;;102.00;91.00;;;;;;;;4990173;28;45475;-82
2022/01/15 10:57:10;;;;;;;;;108.25;95.00;;;;;;;;4990193;28;45639;-82
2022/01/15 10:59:35;;;;;;;;;112.00;96.00;;;;;;;;4971650;28;45404;-82
2022/01/15 11:02:17;;;;;;;;;105.00;93.50;;;;;;;;4972758;28;45363;-82
2022/01/15 11:04:42;;;;;;;;;112.50;103.25;;;;;;;;4972606;28;45797;-82
2022/01/15 11:07:11;;;;;;;;;123.00;108.67;;;;;;;;4971285;28;47091;-83
2022/01/15 11:09:36;;;;;;;;;113.50;104.50;;;;;;;;4971780;28;45435;-83
2022/01/15 11:12:02;;;;;;;;;121.33;99.67;;;;;;;;4990353;28;45360;-82
2022/01/15 11:14:27;;;;;;;;;115.50;105.25;;;;;;;;4989323;28;45850;-82
2022/01/15 11:16:54;;;;;;;;;106.33;97.67;;;;;;;;4990180;28;45611;-83
2022/01/15 11:19:20;;;;;;;;;119.00;107.75;;;;;;;;4989479;28;45483;-83
2022/01/15 11:21:45;;;;;;;;;121.25;108.25;;;;;;;;4988652;28;45436;-83
2022/01/15 11:24:10;;;;;;;;;109.67;98.00;;;;;;;;4989976;28;45630;-83
2022/01/15 11:26:37;;;;;;;;;114.33;106.00;;;;;;;;4989433;28;45836;-82
2022/01/15 11:29:03;;;;;;;;;118.75;110.00;;;;;;;;4971540;28;46123;-83
2022/01/15 11:31:29;;;;;;;;;117.50;108.50;;;;;;;;4989049;28;45427;-83
2022/01/15 11:33:56;;;;;;;;;114.25;104.50;;;;;;;;4974727;28;45738;-83
2022/01/15 11:36:30;;;;;;;;;118.25;105.00;;;;;;;;4992462;28;45400;-83
2022/01/15 11:38:57;;;;;;;;;110.75;102.25;;;;;;;;4993371;28;45528;-83
2022/01/15 11:41:22;;;;;;;;;126.00;112.00;;;;;;;;4992916;28;45780;-82
2022/01/15 11:43:47;;;;;;;;;122.00;108.67;;;;;;;;4975129;28;45540;-82
2022/01/15 11:46:22;;;;;;;;;126.67;111.67;;;;;;;;4992673;28;46331;-83
2022/01/15 11:48:47;;;;;;;;;117.00;104.00;;;;;;;;4993265;28;45319;-83
2022/01/15 11:51:12;;;;;;;;;103.33;92.33;;;;;;;;4992317;28;45568;-83
2022/01/15 11:53:44;;;;;;;;;105.00;89.33;;;;;;;;4992718;28;45384;-83
2022/01/15 11:56:16;;;;;;;;;96.50;82.75;;;;;;;;4975008;28;47332;-82
2022/01/15 11:58:42;;;;;;;;;88.75;67.50;;;;;;;;4974897;28;45773;-82
2022/01/15 12:01:07;;;;;;;;;96.33;82.00;;;;;;;;4992707;28;45396;-82
2022/01/15 12:03:38;;;;;;;;;96.67;83.00;;;;;;;;4992335;28;45447;-82
2022/01/15 12:06:04;;;;;;;;;96.00;83.00;;;;;;;;4992447;28;46146;-82
2022/01/15 12:08:32;;;;;;;;;83.25;64.75;;;;;;;;4974130;28;45933;-82
2022/01/15 12:10:58;;;;;;;;;88.00;69.00;;;;;;;;4993120;28;45742;-83
2022/01/15 12:13:27;;;;;;;;;89.75;69.50;;;;;;;;4991751;28;45483;-83
2022/01/15 12:16:28;;;;;;;;;94.25;81.00;;;;;;;;4975020;28;48004;-82
2022/01/15 12:18:54;;;;;;;;;98.75;82.25;;;;;;;;4970963;28;45664;-82
2022/01/15 12:21:46;;;;;;;;;95.50;80.50;;;;;;;;4973962;28;45398;-82
2022/01/15 12:24:30;;;;;;;;;101.25;88.00;;;;;;;;4990053;28;45414;-82
2022/01/15 12:27:02;;;;;;;;;97.50;82.75;;;;;;;;4974305;28;46721;-83
2022/01/15 12:29:27;;;;;;;;;98.75;84.25;;;;;;;;4973939;28;46010;-82
2022/01/15 12:31:53;;;;;;;;;94.67;81.33;;;;;;;;4974657;28;45366;-83
2022/01/15 12:34:28;;;;;;;;;99.33;92.67;;;;;;;;4991782;28;45345;-82
2022/01/15 12:36:54;;;;;;;;;103.25;94.25;;;;;;;;4991993;28;46075;-83
2022/01/15 12:39:35;;;;;;;;;111.50;103.00;;;;;;;;4991306;28;45376;-83
2022/01/15 12:42:01;;;;;;;;;96.50;83.50;;;;;;;;4992016;28;45464;-83
2022/01/15 12:44:26;;;;;;;;;98.25;86.75;;;;;;;;4991520;28;45610;-82
2022/01/15 12:46:56;;;;;;;;;100.00;89.67;;;;;;;;4974336;28;46963;-83
2022/01/15 12:49:33;;;;;;;;;102.75;95.00;;;;;;;;4973506;28;45768;-82
2022/01/15 12:52:12;;;;;;;;;103.00;92.50;;;;;;;;4974195;28;45803;-82
2022/01/15 12:54:38;;;;;;;;;102.00;89.25;;;;;;;;4991737;28;45610;-82
2022/01/15 12:57:03;;;;;;;;;107.00;96.33;;;;;;;;4991722;28;45358;-83
2022/01/15 12:59:28;;;;;;;;;97.25;88.00;;;;;;;;4973278;28;45614;-82
2022/01/15 13:01:54;;;;;;;;;92.33;74.67;;;;;;;;4974422;28;45454;-82
2022/01/15 13:04:19;;;;;;;;;96.25;83.25;;;;;;;;4973309;28;45475;-83
2022/01/15 13:06:49;;;;;;;;;93.50;79.50;;;;;;;;4973683;28;47279;-83
2022/01/15 13:09:15;;;;;;;;;93.25;80.75;;;;;;;;4973756;28;45540;-83
2022/01/15 13:11:48;;;;;;;;;88.75;71.00;;;;;;;;4991454;28;45610;-83
2022/01/15 13:14:13;;;;;;;;;87.00;71.75;;;;;;;;4991352;28;47294;-82
2022/01/15 13:16:38;;;;;;;;;82.67;66.67;;;;;;;;4991366;28;45541;-82
2022/01/15 13:19:05;;;;;;;;;87.00;69.00;;;;;;;;4973223;28;45793;-83
2022/01/15 13:21:32;;;;;;;;;88.25;67.50;;;;;;;;4991103;28;45403;-83
2022/01/15 13:24:01;;;;;;;;;84.00;70.25;;;;;;;;4991825;28;45455;-82
2022/01/15 13:26:29;;;;;;;;;92.00;73.25;;;;;;;;4972911;28;47369;-83
2022/01/15 13:28:55;;;;;;;;;96.75;89.50;;;;;;;;4991477;28;45542;-83
2022/01/15 13:31:25;;;;;;;;;99.50;91.25;;;;;;;;4990950;28;45557;-82
2022/01/15 13:33:50;;;;;;;;;98.25;89.00;;;;;;;;4991204;28;45452;-83
2022/01/15 13:36:17;;;;;;;;;101.67;90.33;;;;;;;;4973176;28;46533;-83
2022/01/15 13:38:43;;;;;;;;;104.00;97.25;;;;;;;;4973602;28;45752;-83
2022/01/15 13:41:11;;;;;;;;;109.00;98.25;;;;;;;;4990658;28;45510;-83
2022/01/15 13:43:38;;;;;;;;;115.75;103.75;;;;;;;;4973233;28;45562;-83
2022/01/15 13:46:05;;;;;;;;;110.75;99.75;;;;;;;;4991202;28;45827;-83
2022/01/15 13:48:30;;;;;;;;;115.50;102.75;;;;;;;;4990915;28;45799;-84
2022/01/15 13:53:42;;;;;;;;;108.50;103.00;;;;;;;;4990718;28;45614;-83
2022/01/15 13:56:13;;;;;;;;;114.25;108.50;;;;;;;;4971700;28;48028;-83
2022/01/15 13:58:39;;;;;;;;;115.75;108.75;;;;;;;;4990856;28;45288;-83
2022/01/15 14:01:17;;;;;;;;;116.25;105.25;;;;;;;;4991026;28;45501;-83
2022/01/15 14:03:42;;;;;;;;;118.75;111.50;;;;;;;;4990568;28;45471;-83
2022/01/15 14:06:08;;;;;;;;;121.67;108.67;;;;;;;;4973080;28;48432;-83
2022/01/15 14:08:33;;;;;;;;;113.00;102.33;;;;;;;;4972556;28;45740;-82
2022/01/15 14:10:58;;;;;;;;;101.00;96.00;;;;;;;;4990756;28;45443;-83
2022/01/15 14:13:27;;;;;;;;;113.67;103.67;;;;;;;;4972685;28;45462;-83
2022/01/15 14:15:52;;;;;;;;;108.50;97.75;;;;;;;;4990577;28;47079;-83
2022/01/15 14:18:29;;;;;;;;;109.67;99.33;;;;;;;;4990054;28;45346;-83
2022/01/15 14:23:32;;;;;;;;;114.25;93.75;;;;;;;;4989946;28;46115;-83
2022/01/15 14:25:57;;;;;;;;;109.25;97.25;;;;;;;;4990825;28;46575;-83
2022/01/15 14:28:23;;;;;;;;;105.33;97.67;;;;;;;;4990307;28;45487;-83
2022/01/15 14:30:50;;;;;;;;;105.50;97.75;;;;;;;;4991301;28;45717;-82
2022/01/15 14:33:15;;;;;;;;;98.75;94.00;;;;;;;;4952137;28;45430;-81
2022/01/15 14:35:42;;;;;;;;;98.33;92.00;;;;;;;;4970810;28;45521;-83
2022/01/15 14:38:07;;;;;;;;;112.75;102.75;;;;;;;;4970422;28;45283;-82
2022/01/15 14:40:32;;;;;;;;;116.00;103.67;;;;;;;;4970031;28;45702;-83
2022/01/15 14:42:57;;;;;;;;;111.33;98.00;;;;;;;;4970993;28;45560;-83
2022/01/15 14:45:23;;;;;;;;;99.33;92.33;;;;;;;;4970100;28;45622;-83